Terminal Aerodrome Forecast
Issued by NWS Spokane, WA

Home | Current Version | Previous Version | Text Only | Print | Product List | Glossary On
Versions: 1 2 3 4 5 6 7 8 9 10 11 12 13 14 15 16 17 18 19 20 21 22 23 24 25 26
000
FTUS46 KOTX 291139
TAFEAT
TAF
KEAT 291139Z 2912/3012 VRB04KT 5SM -RA BR SCT020 OVC035
     FM291500 VRB03KT P6SM VCSH SCT015 OVC045
     FM291800 15005KT P6SM SCT040 SCT060 BKN150
     FM292200 18006KT P6SM SCT060 SCT150=

USA.gov is the U.S. government's official web portal to all federal, state and local government web resources and services.